createdAt,value
2022-12-31T00:00:27.274Z,1.10
2022-12-31T00:01:59.055Z,1.03
2022-12-31T00:03:30.898Z,1.00
2022-12-31T00:05:03.188Z,1.00
2022-12-31T00:06:36.099Z,0.90
2022-12-31T00:08:07.804Z,1.00
2022-12-31T00:09:39.493Z,1.03
2022-12-31T00:11:12.992Z,0.97
2022-12-31T00:12:44.673Z,1.00
2022-12-31T00:14:16.271Z,1.00
2022-12-31T00:15:47.979Z,1.10
2022-12-31T00:17:19.606Z,0.90
2022-12-31T00:18:53.928Z,0.80
2022-12-31T00:20:25.645Z,0.90
2022-12-31T00:21:57.261Z,0.90
2022-12-31T00:23:28.921Z,0.90
2022-12-31T00:25:00.673Z,0.80
2022-12-31T00:26:34.051Z,0.90
2022-12-31T00:28:05.871Z,0.90
2022-12-31T00:29:37.624Z,1.10
2022-12-31T00:31:14.003Z,0.90
2022-12-31T00:32:45.638Z,0.80
2022-12-31T00:34:17.335Z,0.90
2022-12-31T00:35:48.998Z,0.80
2022-12-31T00:37:20.648Z,0.80
2022-12-31T00:38:54.100Z,0.90
2022-12-31T00:40:25.814Z,0.80
2022-12-31T00:41:57.489Z,0.77
2022-12-31T00:43:29.228Z,0.70
2022-12-31T00:45:00.860Z,1.20
2022-12-31T00:46:32.574Z,0.90
2022-12-31T00:48:04.537Z,0.93
2022-12-31T00:49:36.284Z,0.87
2022-12-31T00:51:11.289Z,0.80
2022-12-31T00:52:42.906Z,0.87
2022-12-31T00:54:14.679Z,0.90
2022-12-31T00:55:46.643Z,0.90
2022-12-31T00:57:18.220Z,0.80
2022-12-31T00:58:50.580Z,0.80
2022-12-31T01:00:22.235Z,1.00
2022-12-31T01:01:53.935Z,0.70
2022-12-31T01:03:26.090Z,0.73
2022-12-31T01:04:57.786Z,0.70
2022-12-31T01:06:30.062Z,0.80
2022-12-31T01:08:02.054Z,0.63
2022-12-31T01:09:33.677Z,0.70
2022-12-31T01:11:22.312Z,0.80
2022-12-31T01:12:54.317Z,0.67
2022-12-31T01:14:25.990Z,0.70
2022-12-31T01:15:57.682Z,0.70
2022-12-31T01:17:29.659Z,0.70
2022-12-31T01:19:04.014Z,0.70
2022-12-31T01:20:38.197Z,0.70
2022-12-31T01:22:09.920Z,0.80
2022-12-31T01:23:42.193Z,0.83
2022-12-31T01:25:13.925Z,0.60
2022-12-31T01:26:47.494Z,0.70
2022-12-31T01:28:19.141Z,0.60
2022-12-31T01:29:50.739Z,0.60
2022-12-31T01:31:24.218Z,0.70
2022-12-31T01:32:56.103Z,0.80
2022-12-31T01:34:27.859Z,0.60
2022-12-31T01:36:26.312Z,0.50
2022-12-31T01:37:58.292Z,0.70
2022-12-31T01:39:29.940Z,0.70
2022-12-31T01:41:01.999Z,0.67
2022-12-31T01:42:33.610Z,0.60
2022-12-31T01:44:11.239Z,0.50
2022-12-31T01:45:45.739Z,0.80
2022-12-31T01:47:22.062Z,0.60
2022-12-31T01:48:57.548Z,0.60
2022-12-31T01:50:33.464Z,0.60
2022-12-31T01:52:18.415Z,0.70
2022-12-31T01:53:50.699Z,0.80
2022-12-31T01:55:35.777Z,0.70
2022-12-31T01:57:08.854Z,0.63
2022-12-31T01:58:44.282Z,0.60
2022-12-31T02:00:16.928Z,0.67
2022-12-31T02:01:54.946Z,0.70
2022-12-31T02:03:28.407Z,0.53
2022-12-31T02:05:05.473Z,0.60
2022-12-31T02:06:49.072Z,0.60
2022-12-31T02:08:21.239Z,0.70
2022-12-31T02:09:53.899Z,0.60
2022-12-31T02:11:36.594Z,0.67
2022-12-31T02:13:08.625Z,0.60
2022-12-31T02:14:44.312Z,0.70
2022-12-31T02:16:38.419Z,0.60
2022-12-31T02:18:32.784Z,0.60
2022-12-31T02:20:39.862Z,0.70
2022-12-31T02:22:30.122Z,0.60
2022-12-31T02:24:32.239Z,0.70
2022-12-31T02:26:22.876Z,0.70
2022-12-31T02:28:13.015Z,0.50
2022-12-31T02:30:09.619Z,0.60
2022-12-31T02:31:50.298Z,0.60
2022-12-31T02:33:38.307Z,0.70
2022-12-31T02:35:29.976Z,0.90
2022-12-31T02:37:06.707Z,0.60
2022-12-31T02:38:42.370Z,0.60
2022-12-31T02:40:17.381Z,0.70
2022-12-31T02:41:49.860Z,0.70
2022-12-31T02:43:21.500Z,0.60
2022-12-31T02:44:53.203Z,0.60
2022-12-31T02:46:49.994Z,0.60
2022-12-31T02:48:41.865Z,0.80
2022-12-31T02:50:31.062Z,0.80
2022-12-31T02:52:23.872Z,0.70
2022-12-31T02:54:18.847Z,0.60
2022-12-31T02:56:16.563Z,0.60
2022-12-31T02:57:55.453Z,0.60
2022-12-31T02:59:57.574Z,0.67
2022-12-31T03:01:56.282Z,0.67
2022-12-31T03:03:28.895Z,0.80
2022-12-31T03:05:02.524Z,0.70
2022-12-31T03:06:34.493Z,0.80
2022-12-31T03:08:06.177Z,1.30
2022-12-31T03:09:38.382Z,0.70
2022-12-31T03:11:30.017Z,0.60
2022-12-31T03:13:02.194Z,0.57
2022-12-31T03:14:33.813Z,0.60
2022-12-31T03:16:05.603Z,0.70
2022-12-31T03:17:37.268Z,0.60
2022-12-31T03:19:27.432Z,0.70
2022-12-31T03:21:17.984Z,0.60
2022-12-31T03:22:49.628Z,0.80
2022-12-31T03:24:41.899Z,0.77
2022-12-31T03:26:13.615Z,0.80
2022-12-31T03:27:46.498Z,0.63
2022-12-31T03:29:18.121Z,0.60
2022-12-31T03:30:53.843Z,0.70
2022-12-31T03:32:25.484Z,0.70
2022-12-31T03:33:57.166Z,0.70
2022-12-31T03:35:31.821Z,0.63
2022-12-31T03:37:03.420Z,0.60
2022-12-31T03:38:35.224Z,0.60
2022-12-31T03:40:08.727Z,0.80
2022-12-31T03:41:40.310Z,0.70
2022-12-31T03:43:12.130Z,0.73
2022-12-31T03:44:43.808Z,0.60
2022-12-31T03:46:15.480Z,0.63
2022-12-31T03:47:47.890Z,0.70
2022-12-31T03:49:19.502Z,0.90
2022-12-31T03:50:51.276Z,0.80
2022-12-31T03:52:23.074Z,0.73
2022-12-31T03:53:54.756Z,0.77
2022-12-31T03:55:26.574Z,0.80
2022-12-31T03:57:00.226Z,0.73
2022-12-31T03:58:32.171Z,0.70
2022-12-31T04:00:07.546Z,0.90
2022-12-31T04:01:39.300Z,0.83
2022-12-31T04:03:11.004Z,0.77
2022-12-31T04:04:42.694Z,0.83
2022-12-31T04:06:14.315Z,0.80
2022-12-31T04:07:46.510Z,0.70
2022-12-31T04:09:18.195Z,0.90
2022-12-31T04:10:49.915Z,0.93
2022-12-31T04:12:21.549Z,0.80
2022-12-31T04:13:53.153Z,0.83
2022-12-31T04:15:24.779Z,0.70
2022-12-31T04:16:56.368Z,1.00
2022-12-31T04:18:28.140Z,0.90
2022-12-31T04:19:59.989Z,0.83
2022-12-31T04:21:35.187Z,0.90
2022-12-31T04:23:07.019Z,0.60
2022-12-31T04:24:38.635Z,0.80
2022-12-31T04:26:10.254Z,0.90
2022-12-31T04:27:43.493Z,1.30
2022-12-31T04:29:15.218Z,0.70
2022-12-31T04:30:47.042Z,0.80
2022-12-31T04:32:18.781Z,0.70
2022-12-31T04:33:50.741Z,0.80
2022-12-31T04:35:22.394Z,1.00
2022-12-31T04:36:54.067Z,0.80
2022-12-31T04:38:25.912Z,0.80
2022-12-31T04:40:03.522Z,1.00
2022-12-31T04:41:37.326Z,0.80
2022-12-31T04:43:08.947Z,0.90
2022-12-31T04:44:40.551Z,0.90
2022-12-31T04:46:12.766Z,1.20
2022-12-31T04:47:44.447Z,0.97
2022-12-31T04:49:16.215Z,1.37
2022-12-31T04:50:47.876Z,0.80
2022-12-31T04:52:19.551Z,1.00
2022-12-31T04:53:51.542Z,0.97
2022-12-31T04:55:23.143Z,1.47
2022-12-31T04:56:54.778Z,0.70
2022-12-31T04:58:26.456Z,0.90
2022-12-31T04:59:58.111Z,0.90
2022-12-31T05:01:29.793Z,0.87
2022-12-31T05:03:01.479Z,0.90
2022-12-31T05:04:33.163Z,0.93
2022-12-31T05:06:07.711Z,0.70
2022-12-31T05:07:39.340Z,0.80
2022-12-31T05:09:10.961Z,0.90
2022-12-31T05:10:48.483Z,1.10
2022-12-31T05:12:20.099Z,1.00
2022-12-31T05:13:51.738Z,0.90
2022-12-31T05:15:23.353Z,0.90
2022-12-31T05:16:55.137Z,1.10
2022-12-31T05:18:27.009Z,1.00
2022-12-31T05:19:58.650Z,0.90
2022-12-31T05:21:30.453Z,1.10
2022-12-31T05:23:02.382Z,1.27
2022-12-31T05:24:34.136Z,1.03
2022-12-31T05:26:05.770Z,1.03
2022-12-31T05:27:37.806Z,0.90
2022-12-31T05:29:09.415Z,1.20
2022-12-31T05:30:41.963Z,1.03
2022-12-31T05:32:13.679Z,0.90
2022-12-31T05:33:45.296Z,1.13
2022-12-31T05:35:17.469Z,1.07
2022-12-31T05:36:49.152Z,1.10
2022-12-31T05:38:20.749Z,0.90
2022-12-31T05:39:52.446Z,1.00
2022-12-31T05:41:24.097Z,0.80
2022-12-31T05:42:55.739Z,0.90
2022-12-31T05:44:27.382Z,1.13
2022-12-31T05:46:03.677Z,1.07
2022-12-31T05:47:35.359Z,1.00
2022-12-31T05:49:06.969Z,0.80
2022-12-31T05:50:38.875Z,1.10
2022-12-31T05:52:12.877Z,1.00
2022-12-31T05:53:44.555Z,1.00
2022-12-31T05:55:16.287Z,1.30
2022-12-31T05:56:47.896Z,1.17
2022-12-31T05:58:19.552Z,1.00
2022-12-31T05:59:53.348Z,1.27
2022-12-31T06:01:25.034Z,0.87
2022-12-31T06:02:56.738Z,1.17
2022-12-31T06:04:28.483Z,0.90
2022-12-31T06:06:01.540Z,1.10
2022-12-31T06:07:33.333Z,0.90
2022-12-31T06:09:05.090Z,1.00
2022-12-31T06:10:36.824Z,0.87
2022-12-31T06:12:08.700Z,1.10
2022-12-31T06:13:40.345Z,1.13
2022-12-31T06:15:11.952Z,1.00
2022-12-31T06:16:43.716Z,1.13
2022-12-31T06:18:15.406Z,1.40
2022-12-31T06:19:47.328Z,1.00
2022-12-31T06:21:20.497Z,1.03
2022-12-31T06:22:52.156Z,1.00
2022-12-31T06:24:23.813Z,1.13
2022-12-31T06:25:55.732Z,1.10
2022-12-31T06:27:27.376Z,1.00
2022-12-31T06:28:58.983Z,0.97
2022-12-31T06:30:30.988Z,1.17
2022-12-31T06:32:02.643Z,1.30
2022-12-31T06:33:34.806Z,0.97
2022-12-31T06:35:07.241Z,1.00
2022-12-31T06:36:42.246Z,1.10
2022-12-31T06:38:13.848Z,1.00
2022-12-31T06:39:45.501Z,1.30
2022-12-31T06:41:18.573Z,0.90
2022-12-31T06:42:53.375Z,0.90
2022-12-31T06:44:29.556Z,1.10
2022-12-31T06:46:02.486Z,1.10
2022-12-31T06:47:34.268Z,0.93
2022-12-31T06:49:05.948Z,0.97
2022-12-31T06:50:38.067Z,1.00
2022-12-31T06:52:09.699Z,1.23
2022-12-31T06:53:41.487Z,1.10
2022-12-31T06:55:13.796Z,1.40
2022-12-31T06:56:45.743Z,1.03
2022-12-31T06:58:17.630Z,1.10
2022-12-31T06:59:49.757Z,1.60
2022-12-31T07:01:44.432Z,1.30
2022-12-31T07:03:39.910Z,1.40
2022-12-31T07:05:41.707Z,1.00
2022-12-31T07:07:41.328Z,1.10
2022-12-31T07:09:27.975Z,1.17
2022-12-31T07:11:16.128Z,1.20
2022-12-31T07:13:21.626Z,1.20
2022-12-31T07:14:59.471Z,1.30
2022-12-31T07:17:22.088Z,1.20
2022-12-31T07:19:27.803Z,0.90
2022-12-31T07:20:59.988Z,1.50
2022-12-31T07:22:32.019Z,1.27
2022-12-31T07:24:05.741Z,1.00
2022-12-31T07:25:39.983Z,1.27
2022-12-31T07:27:20.306Z,1.67
2022-12-31T07:29:15.156Z,1.37
2022-12-31T07:31:13.140Z,1.20
2022-12-31T07:32:53.654Z,1.13
2022-12-31T07:34:49.702Z,1.10
2022-12-31T07:36:35.533Z,1.30
2022-12-31T07:38:28.775Z,1.17
2022-12-31T07:40:25.670Z,1.10
2022-12-31T07:42:12.509Z,1.17
2022-12-31T07:44:21.520Z,1.90
2022-12-31T07:46:18.446Z,1.20
2022-12-31T07:47:50.331Z,1.70
2022-12-31T07:49:22.732Z,1.37
2022-12-31T07:50:55.908Z,1.30
2022-12-31T07:52:27.931Z,1.33
2022-12-31T07:53:59.554Z,1.20
2022-12-31T07:55:31.281Z,1.03
2022-12-31T07:57:03.203Z,1.10
2022-12-31T07:58:46.799Z,1.10
2022-12-31T08:00:19.665Z,1.10
2022-12-31T08:01:57.467Z,1.10
2022-12-31T08:03:50.675Z,1.50
2022-12-31T08:05:25.089Z,1.17
2022-12-31T08:07:08.342Z,1.20
2022-12-31T08:09:09.128Z,2.10
2022-12-31T08:10:55.948Z,1.70
2022-12-31T08:12:33.534Z,1.47
2022-12-31T08:14:10.275Z,1.20
2022-12-31T08:15:42.085Z,1.33
2022-12-31T08:17:15.827Z,1.20
2022-12-31T08:18:47.804Z,1.30
2022-12-31T08:20:19.590Z,1.00
2022-12-31T08:22:09.878Z,1.23
2022-12-31T08:24:04.372Z,1.00
2022-12-31T08:26:03.484Z,1.43
2022-12-31T08:27:56.071Z,1.17
2022-12-31T08:29:35.206Z,1.20
2022-12-31T08:31:20.337Z,1.00
2022-12-31T08:33:33.506Z,1.20
2022-12-31T08:35:13.960Z,1.10
2022-12-31T08:37:10.693Z,1.20
2022-12-31T08:39:20.333Z,1.63
2022-12-31T08:41:01.197Z,1.20
2022-12-31T08:42:38.227Z,1.50
2022-12-31T08:44:09.855Z,1.10
2022-12-31T08:45:51.267Z,1.30
2022-12-31T08:48:07.917Z,1.20
2022-12-31T08:49:40.739Z,1.10
2022-12-31T08:51:20.324Z,0.93
2022-12-31T08:52:52.329Z,1.10
2022-12-31T08:54:24.292Z,1.13
2022-12-31T08:56:13.105Z,1.40
2022-12-31T08:58:22.288Z,1.40
2022-12-31T09:00:09.859Z,1.20
2022-12-31T09:01:47.525Z,1.10
2022-12-31T09:03:34.559Z,1.07
2022-12-31T09:05:20.617Z,1.20
2022-12-31T09:07:03.775Z,1.17
2022-12-31T09:08:47.725Z,1.20
2022-12-31T09:10:39.981Z,0.93
2022-12-31T09:12:24.884Z,1.10
2022-12-31T09:14:02.565Z,1.30
2022-12-31T09:15:51.588Z,1.20
2022-12-31T09:17:50.761Z,1.43
2022-12-31T09:19:22.455Z,1.00
2022-12-31T09:20:54.264Z,1.20
2022-12-31T09:22:26.360Z,1.10
2022-12-31T09:24:00.904Z,1.20
2022-12-31T09:25:42.097Z,0.90
2022-12-31T09:27:34.917Z,1.20
2022-12-31T09:29:19.833Z,1.20
2022-12-31T09:31:05.809Z,1.30
2022-12-31T09:32:58.622Z,1.30
2022-12-31T09:34:58.292Z,1.20
2022-12-31T09:36:41.028Z,1.00
2022-12-31T09:38:12.612Z,1.30
2022-12-31T09:39:46.575Z,1.23
2022-12-31T09:41:42.927Z,1.30
2022-12-31T09:43:44.949Z,1.40
2022-12-31T09:45:34.675Z,1.43
2022-12-31T09:47:09.351Z,1.50
2022-12-31T09:49:10.015Z,1.70
2022-12-31T09:51:02.449Z,1.27
2022-12-31T09:52:43.146Z,1.13
2022-12-31T09:54:38.639Z,1.40
2022-12-31T09:56:21.578Z,1.27
2022-12-31T09:58:16.258Z,1.37
2022-12-31T09:59:59.905Z,1.30
2022-12-31T10:01:57.198Z,1.23
2022-12-31T10:03:49.191Z,1.40
2022-12-31T10:05:23.826Z,1.20
2022-12-31T10:07:16.882Z,1.40
2022-12-31T10:09:41.783Z,1.50
2022-12-31T10:11:33.622Z,1.17
2022-12-31T10:13:28.355Z,1.60
2022-12-31T10:15:35.395Z,1.20
2022-12-31T10:17:18.509Z,1.40
2022-12-31T10:19:27.716Z,2.23
2022-12-31T10:21:09.447Z,1.70
2022-12-31T10:22:59.632Z,1.17
2022-12-31T10:25:01.365Z,1.20
2022-12-31T10:26:59.796Z,1.50
2022-12-31T10:28:40.668Z,1.40
2022-12-31T10:30:19.672Z,1.13
2022-12-31T10:32:19.642Z,1.50
2022-12-31T10:34:15.359Z,1.10
2022-12-31T10:36:20.814Z,1.57
2022-12-31T10:38:05.962Z,1.77
2022-12-31T10:39:56.247Z,1.37
2022-12-31T10:41:55.546Z,1.37
2022-12-31T10:43:47.931Z,1.63
2022-12-31T10:45:47.852Z,1.37
2022-12-31T10:47:41.172Z,1.70
2022-12-31T10:49:20.380Z,1.53
2022-12-31T10:51:20.660Z,1.50
2022-12-31T10:53:10.175Z,1.30
2022-12-31T10:55:11.471Z,1.67
2022-12-31T10:57:08.900Z,1.70
2022-12-31T10:58:55.375Z,1.70
2022-12-31T11:00:40.820Z,1.80
2022-12-31T11:02:36.819Z,1.80
2022-12-31T11:04:41.514Z,1.40
2022-12-31T11:06:31.804Z,1.57
2022-12-31T11:08:22.523Z,1.37
2022-12-31T11:10:24.556Z,1.63
2022-12-31T11:12:16.546Z,1.53
2022-12-31T11:14:14.254Z,1.60
2022-12-31T11:16:10.463Z,1.67
2022-12-31T11:17:47.798Z,1.27
2022-12-31T11:19:36.343Z,1.63
2022-12-31T11:21:28.427Z,1.50
2022-12-31T11:23:05.835Z,1.63
2022-12-31T11:25:00.217Z,1.77
2022-12-31T11:26:46.844Z,1.43
2022-12-31T11:28:35.055Z,1.50
2022-12-31T11:30:25.135Z,1.70
2022-12-31T11:32:07.205Z,1.50
2022-12-31T11:34:03.867Z,1.40
2022-12-31T11:36:08.655Z,1.80
2022-12-31T11:37:49.119Z,1.50
2022-12-31T11:39:58.003Z,1.40
2022-12-31T11:41:46.114Z,1.80
2022-12-31T11:43:45.929Z,1.47
2022-12-31T11:45:50.673Z,1.30
2022-12-31T11:48:29.280Z,1.47
2022-12-31T11:50:20.655Z,1.43
2022-12-31T11:52:06.665Z,1.00
2022-12-31T11:53:57.565Z,1.30
2022-12-31T11:55:44.184Z,1.70
2022-12-31T11:57:33.293Z,1.40
2022-12-31T11:59:18.657Z,1.60
2022-12-31T12:01:05.315Z,1.67
2022-12-31T12:02:45.436Z,1.40
2022-12-31T12:04:17.272Z,1.60
2022-12-31T12:05:49.057Z,2.00
2022-12-31T12:07:21.772Z,1.70
2022-12-31T12:08:58.696Z,1.57
2022-12-31T12:10:37.087Z,1.60
2022-12-31T12:12:09.428Z,1.67
2022-12-31T12:13:41.090Z,1.30
2022-12-31T12:15:20.131Z,1.53
2022-12-31T12:17:02.455Z,2.20
2022-12-31T12:18:36.911Z,1.73
2022-12-31T12:20:46.010Z,1.47
2022-12-31T12:22:25.669Z,1.40
2022-12-31T12:23:59.863Z,1.30
2022-12-31T12:25:40.597Z,1.40
2022-12-31T12:27:24.336Z,1.77
2022-12-31T12:28:58.968Z,1.77
2022-12-31T12:30:38.124Z,1.50
2022-12-31T12:32:19.960Z,1.50
2022-12-31T12:33:52.182Z,1.67
2022-12-31T12:35:27.569Z,1.70
2022-12-31T12:36:59.725Z,1.90
2022-12-31T12:38:31.338Z,1.80
2022-12-31T12:40:06.248Z,1.70
2022-12-31T12:41:37.868Z,1.77
2022-12-31T12:43:27.158Z,1.90
2022-12-31T12:45:23.513Z,1.80
2022-12-31T12:46:56.052Z,1.50
2022-12-31T12:48:40.578Z,1.70
2022-12-31T12:50:23.164Z,1.57
2022-12-31T12:52:13.722Z,1.60
2022-12-31T12:54:00.882Z,2.00
2022-12-31T12:55:41.438Z,2.10
2022-12-31T12:57:23.994Z,1.63
2022-12-31T12:59:36.412Z,1.47
2022-12-31T13:01:34.838Z,1.60
2022-12-31T13:03:20.280Z,1.70
2022-12-31T13:05:16.112Z,1.33
2022-12-31T13:07:06.014Z,1.50
2022-12-31T13:08:37.646Z,2.33
2022-12-31T13:10:31.909Z,1.50
2022-12-31T13:12:56.790Z,1.87
2022-12-31T13:14:36.333Z,1.57
2022-12-31T13:16:22.407Z,3.27
2022-12-31T13:18:28.469Z,2.10
2022-12-31T13:20:09.790Z,1.43
2022-12-31T13:21:47.799Z,1.60
2022-12-31T13:23:25.283Z,1.70
2022-12-31T13:25:02.852Z,1.80
2022-12-31T13:26:47.605Z,1.37
2022-12-31T13:28:19.741Z,1.83
2022-12-31T13:29:53.148Z,1.80
2022-12-31T13:31:36.051Z,1.70
2022-12-31T13:33:14.455Z,1.50
2022-12-31T13:34:50.228Z,1.70
2022-12-31T13:36:24.593Z,1.60
2022-12-31T13:38:37.717Z,1.63
2022-12-31T13:40:27.618Z,2.00
2022-12-31T13:42:15.474Z,1.40
2022-12-31T13:43:53.613Z,1.80
2022-12-31T13:45:31.963Z,1.93
2022-12-31T13:47:34.654Z,1.47
2022-12-31T13:49:18.619Z,1.67
2022-12-31T13:51:02.050Z,1.70
2022-12-31T13:52:48.864Z,1.80
2022-12-31T13:54:43.405Z,1.77
2022-12-31T13:56:23.899Z,1.90
2022-12-31T13:58:27.732Z,2.23
2022-12-31T14:00:05.019Z,2.00
2022-12-31T14:01:47.493Z,2.17
2022-12-31T14:03:34.334Z,2.00
2022-12-31T14:05:12.203Z,1.73
2022-12-31T14:06:54.562Z,2.27
2022-12-31T14:08:26.616Z,1.80
2022-12-31T14:09:58.804Z,1.67
2022-12-31T14:11:44.426Z,1.87
2022-12-31T14:13:53.669Z,2.00
2022-12-31T14:15:37.809Z,1.80
2022-12-31T14:17:36.348Z,1.60
2022-12-31T14:19:19.975Z,2.10
2022-12-31T14:20:58.405Z,1.90
2022-12-31T14:23:00.000Z,1.77
2022-12-31T14:24:51.575Z,2.10
2022-12-31T14:26:29.465Z,1.70
2022-12-31T14:28:02.963Z,2.07
2022-12-31T14:29:49.882Z,2.63
2022-12-31T14:31:44.698Z,2.53
2022-12-31T14:33:36.912Z,1.90
2022-12-31T14:35:32.587Z,2.17
2022-12-31T14:37:22.142Z,1.80
2022-12-31T14:39:24.477Z,2.33
2022-12-31T14:41:33.823Z,2.20
2022-12-31T14:43:18.078Z,1.57
2022-12-31T14:45:27.289Z,2.13
2022-12-31T14:47:22.584Z,2.23
2022-12-31T14:49:15.933Z,1.77
2022-12-31T14:50:47.734Z,1.87
2022-12-31T14:52:25.342Z,2.07
2022-12-31T14:53:58.714Z,2.00
2022-12-31T14:55:36.563Z,1.67
2022-12-31T14:57:54.479Z,2.20
2022-12-31T14:59:34.456Z,2.03
2022-12-31T15:01:15.021Z,1.97
2022-12-31T15:02:53.553Z,2.00
2022-12-31T15:04:34.612Z,1.90
2022-12-31T15:06:24.206Z,2.27
2022-12-31T15:08:17.400Z,1.93
2022-12-31T15:10:16.040Z,2.17
2022-12-31T15:12:14.839Z,1.63
2022-12-31T15:13:58.460Z,1.80
2022-12-31T15:16:00.438Z,2.00
2022-12-31T15:18:00.631Z,2.10
2022-12-31T15:19:56.968Z,2.20
2022-12-31T15:21:31.600Z,2.00
2022-12-31T15:23:12.081Z,1.87
2022-12-31T15:24:46.003Z,2.87
2022-12-31T15:26:31.319Z,1.80
2022-12-31T15:28:06.357Z,2.10
2022-12-31T15:29:45.468Z,2.33
2022-12-31T15:31:20.088Z,2.30
2022-12-31T15:32:54.012Z,2.20
2022-12-31T15:34:34.693Z,2.30
2022-12-31T15:36:21.690Z,1.90
2022-12-31T15:38:20.956Z,2.43
2022-12-31T15:40:03.707Z,2.00
2022-12-31T15:42:03.074Z,2.20
2022-12-31T15:43:43.366Z,2.00
2022-12-31T15:45:26.044Z,2.03
2022-12-31T15:47:30.227Z,2.00
2022-12-31T15:49:05.948Z,2.20
2022-12-31T15:50:42.741Z,1.60
2022-12-31T15:52:23.836Z,1.70
2022-12-31T15:53:58.200Z,1.83
2022-12-31T15:55:37.464Z,1.80
2022-12-31T15:57:18.205Z,2.10
2022-12-31T15:58:54.193Z,1.83
2022-12-31T16:00:33.145Z,2.00
2022-12-31T16:02:05.200Z,1.87
2022-12-31T16:03:44.813Z,2.20
2022-12-31T16:05:23.391Z,1.77
2022-12-31T16:06:59.989Z,1.83
2022-12-31T16:08:50.628Z,1.80
2022-12-31T16:10:29.093Z,2.10
2022-12-31T16:12:03.280Z,1.77
2022-12-31T16:13:42.174Z,1.83
2022-12-31T16:15:21.867Z,1.97
2022-12-31T16:17:01.016Z,1.50
2022-12-31T16:18:43.760Z,1.80
2022-12-31T16:20:27.388Z,1.97
2022-12-31T16:22:21.676Z,1.67
2022-12-31T16:23:56.182Z,1.60
2022-12-31T16:25:32.001Z,2.00
2022-12-31T16:27:13.601Z,1.50
2022-12-31T16:28:48.751Z,1.90
2022-12-31T16:30:29.152Z,2.27
2022-12-31T16:32:02.165Z,2.30
2022-12-31T16:33:34.278Z,1.73
2022-12-31T16:35:33.411Z,2.00
2022-12-31T16:37:13.443Z,2.17
2022-12-31T16:38:45.076Z,2.27
2022-12-31T16:40:22.625Z,1.87
2022-12-31T16:42:16.551Z,2.60
2022-12-31T16:43:49.447Z,2.20
2022-12-31T16:45:36.031Z,1.83
2022-12-31T16:47:09.843Z,1.80
2022-12-31T16:48:46.225Z,1.70
2022-12-31T16:50:21.815Z,2.20
2022-12-31T16:51:59.711Z,1.83
2022-12-31T16:53:36.220Z,2.03
2022-12-31T16:55:15.550Z,1.67
2022-12-31T16:56:47.450Z,1.83
2022-12-31T16:58:26.827Z,1.80
2022-12-31T17:00:02.099Z,2.00
2022-12-31T17:01:36.782Z,1.70
2022-12-31T17:03:23.949Z,1.70
2022-12-31T17:04:56.635Z,1.70
2022-12-31T17:06:32.054Z,1.80
2022-12-31T17:08:25.632Z,1.90
2022-12-31T17:10:10.727Z,2.13
2022-12-31T17:11:55.433Z,2.20
2022-12-31T17:13:31.872Z,1.87
2022-12-31T17:15:05.600Z,1.40
2022-12-31T17:16:57.750Z,1.80
2022-12-31T17:18:38.394Z,2.20
2022-12-31T17:20:22.821Z,2.27
2022-12-31T17:21:54.463Z,2.57
2022-12-31T17:23:31.515Z,1.93
2022-12-31T17:25:26.186Z,2.07
2022-12-31T17:27:05.396Z,1.83
2022-12-31T17:28:49.707Z,1.73
2022-12-31T17:30:22.683Z,1.80
2022-12-31T17:32:03.326Z,2.10
2022-12-31T17:33:35.006Z,1.90
2022-12-31T17:35:26.593Z,2.10
2022-12-31T17:37:07.917Z,2.53
2022-12-31T17:38:42.543Z,2.17
2022-12-31T17:40:50.940Z,1.73
2022-12-31T17:42:29.089Z,2.00
2022-12-31T17:44:00.781Z,2.07
2022-12-31T17:45:37.342Z,2.13
2022-12-31T17:47:13.793Z,2.03
2022-12-31T17:48:51.272Z,1.90
2022-12-31T17:50:27.818Z,1.80
2022-12-31T17:51:59.509Z,2.00
2022-12-31T17:53:31.112Z,2.07
2022-12-31T17:55:02.735Z,2.10
2022-12-31T17:56:34.376Z,1.87
2022-12-31T17:58:06.838Z,2.30
2022-12-31T17:59:38.521Z,1.90
2022-12-31T18:01:13.586Z,1.87
2022-12-31T18:02:45.345Z,2.07
2022-12-31T18:04:18.932Z,2.10
2022-12-31T18:05:50.886Z,2.00
2022-12-31T18:07:22.513Z,2.00
2022-12-31T18:08:54.101Z,2.23
2022-12-31T18:10:28.005Z,1.90
2022-12-31T18:12:01.944Z,2.20
2022-12-31T18:13:34.309Z,2.23
2022-12-31T18:15:07.043Z,2.20
2022-12-31T18:16:38.701Z,1.83
2022-12-31T18:18:24.739Z,1.77
2022-12-31T18:20:08.115Z,2.40
2022-12-31T18:21:40.185Z,2.40
2022-12-31T18:23:23.931Z,2.37
2022-12-31T18:24:55.550Z,2.40
2022-12-31T18:26:28.177Z,2.00
2022-12-31T18:27:59.832Z,1.90
2022-12-31T18:29:31.525Z,2.20
2022-12-31T18:31:03.414Z,2.00
2022-12-31T18:32:37.225Z,2.00
2022-12-31T18:34:12.652Z,1.83
2022-12-31T18:37:36.158Z,2.20
2022-12-31T18:39:08.512Z,2.30
2022-12-31T18:40:43.967Z,2.53
2022-12-31T18:42:18.209Z,2.10
2022-12-31T18:43:50.336Z,2.13
2022-12-31T18:45:22.137Z,2.40
2022-12-31T18:46:53.818Z,2.27
2022-12-31T18:48:26.799Z,1.93
2022-12-31T18:49:58.402Z,2.20
2022-12-31T18:51:32.461Z,2.80
2022-12-31T18:53:04.400Z,2.10
2022-12-31T18:54:36.068Z,2.30
2022-12-31T18:56:20.932Z,2.40
2022-12-31T18:57:52.775Z,2.00
2022-12-31T18:59:24.402Z,2.60
2022-12-31T19:00:56.430Z,1.90
2022-12-31T19:02:28.303Z,2.13
2022-12-31T19:04:02.656Z,2.13
2022-12-31T19:05:37.314Z,2.10
2022-12-31T19:07:09.013Z,2.60
2022-12-31T19:08:40.728Z,2.40
2022-12-31T19:10:13.955Z,2.43
2022-12-31T19:11:48.886Z,2.53
2022-12-31T19:13:21.007Z,2.37
2022-12-31T19:14:52.671Z,2.23
2022-12-31T19:16:24.510Z,2.87
2022-12-31T19:17:57.063Z,2.50
2022-12-31T19:19:28.727Z,2.13
2022-12-31T19:21:00.986Z,2.30
2022-12-31T19:22:32.628Z,2.10
2022-12-31T19:24:11.574Z,2.30
2022-12-31T19:25:43.627Z,2.17
2022-12-31T19:27:15.249Z,2.40
2022-12-31T19:28:48.077Z,2.50
2022-12-31T19:30:26.262Z,2.80
2022-12-31T19:32:00.580Z,2.10
2022-12-31T19:33:32.274Z,2.13
2022-12-31T19:35:04.170Z,2.27
2022-12-31T19:36:41.844Z,2.20
2022-12-31T19:38:24.306Z,2.60
2022-12-31T19:39:55.955Z,2.30
2022-12-31T19:41:27.684Z,2.30
2022-12-31T19:42:59.358Z,2.03
2022-12-31T19:44:31.094Z,2.63
2022-12-31T19:46:03.973Z,2.30
2022-12-31T19:47:35.642Z,2.50
2022-12-31T19:49:09.657Z,1.90
2022-12-31T19:50:44.351Z,2.10
2022-12-31T19:52:16.016Z,2.30
2022-12-31T19:53:48.797Z,2.17
2022-12-31T19:55:22.381Z,2.10
2022-12-31T19:56:54.106Z,2.40
2022-12-31T19:58:26.840Z,2.37
2022-12-31T19:59:58.451Z,2.20
2022-12-31T20:01:30.154Z,2.30
2022-12-31T20:03:02.151Z,2.37
2022-12-31T20:04:33.902Z,2.77
2022-12-31T20:06:08.651Z,2.30
2022-12-31T20:07:41.083Z,2.33
2022-12-31T20:09:12.757Z,2.50
2022-12-31T20:10:45.207Z,2.30
2022-12-31T20:12:19.021Z,2.60
2022-12-31T20:13:53.409Z,2.50
2022-12-31T20:15:25.206Z,2.13
2022-12-31T20:16:56.986Z,2.70
2022-12-31T20:18:28.693Z,2.50
2022-12-31T20:20:00.616Z,2.77
2022-12-31T20:21:32.244Z,2.77
2022-12-31T20:23:03.979Z,2.80
2022-12-31T20:24:35.828Z,2.33
2022-12-31T20:26:07.500Z,2.17
2022-12-31T20:27:39.280Z,2.80
2022-12-31T20:29:10.962Z,2.80
2022-12-31T20:30:42.612Z,2.50
2022-12-31T20:32:14.324Z,2.23
2022-12-31T20:33:46.251Z,3.80
2022-12-31T20:35:18.417Z,2.40
2022-12-31T20:36:50.091Z,2.77
2022-12-31T20:38:21.825Z,3.10
2022-12-31T20:39:53.430Z,3.33
2022-12-31T20:41:26.112Z,2.97
2022-12-31T20:42:57.691Z,2.60
2022-12-31T20:44:29.365Z,2.80
2022-12-31T20:46:14.090Z,2.90
2022-12-31T20:47:46.369Z,3.07
2022-12-31T20:49:31.172Z,3.10
2022-12-31T20:51:09.700Z,2.30
2022-12-31T20:52:42.526Z,2.40
2022-12-31T20:54:14.169Z,3.10
2022-12-31T20:55:46.060Z,2.80
2022-12-31T20:57:18.024Z,2.63
2022-12-31T20:58:49.991Z,2.83
2022-12-31T21:00:21.768Z,2.37
2022-12-31T21:02:20.442Z,2.40
2022-12-31T21:05:38.089Z,2.70
2022-12-31T21:07:09.917Z,2.57
2022-12-31T21:08:42.292Z,2.73
2022-12-31T21:10:15.117Z,2.70
2022-12-31T21:12:07.369Z,2.87
2022-12-31T21:13:38.980Z,2.77
2022-12-31T21:15:12.596Z,2.10
2022-12-31T21:16:44.261Z,2.93
2022-12-31T21:18:16.917Z,2.70
2022-12-31T21:19:52.109Z,2.77
2022-12-31T21:21:23.965Z,2.70
2022-12-31T21:22:55.593Z,2.80
2022-12-31T21:24:27.358Z,2.37
2022-12-31T21:25:59.660Z,2.60
2022-12-31T21:27:31.543Z,2.27
2022-12-31T21:29:03.362Z,2.57
2022-12-31T21:30:35.228Z,2.17
2022-12-31T21:32:07.730Z,2.93
2022-12-31T21:33:42.989Z,2.87
2022-12-31T21:35:41.621Z,2.50
2022-12-31T21:37:06.332Z,2.00
2022-12-31T21:38:38.673Z,2.63
2022-12-31T21:40:10.901Z,2.87
2022-12-31T21:41:51.365Z,2.53
2022-12-31T21:43:23.083Z,2.80
2022-12-31T21:44:55.056Z,2.60
2022-12-31T21:46:26.775Z,2.60
2022-12-31T21:48:18.440Z,2.73
2022-12-31T21:49:50.129Z,4.00
2022-12-31T21:51:22.642Z,2.60
2022-12-31T21:52:54.468Z,2.20
2022-12-31T21:54:45.321Z,2.33
2022-12-31T21:56:18.828Z,2.97
2022-12-31T21:58:24.769Z,2.60
2022-12-31T22:00:39.678Z,2.67
2022-12-31T22:02:12.589Z,3.57
2022-12-31T22:03:44.668Z,2.40
2022-12-31T22:05:21.602Z,2.60
2022-12-31T22:06:56.745Z,2.93
2022-12-31T22:08:30.594Z,3.23
2022-12-31T22:10:03.260Z,2.80